Time;durP1;ratioP1;P1;durP2;ratioP2;P2;SDS_P1;SDS_P2;PMS_P1;PMS_P2;Temp;Humidity;BMP_temperature;BMP_pressure;BME280_temperature;BME280_humidity;BME280_pressure;Samples;Min_cycle;Max_cycle;Signal;HPM_P1;HPM_P2
2021/11/24 00:00:50;;;;;;;0.65;0.10;;;;;;;;;;5034989;28;20033;-70
2021/11/24 00:03:15;;;;;;;0.43;0.08;;;;;;;;;;5034512;28;20053;-70
2021/11/24 00:05:40;;;;;;;1.20;0.20;;;;;;;;;;5034918;28;20080;-70
2021/11/24 00:08:06;;;;;;;0.50;0.10;;;;;;;;;;5034339;28;20028;-71
2021/11/24 00:10:34;;;;;;;2.88;0.30;;;;;;;;;;5034661;28;20461;-69
2021/11/24 00:13:05;;;;;;;0.28;0.00;;;;;;;;;;5034787;28;20053;-70
2021/11/24 00:15:30;;;;;;;0.10;0.00;;;;;;;;;;5034607;28;20067;-69
2021/11/24 00:17:57;;;;;;;0.70;0.20;;;;;;;;;;5034658;28;20100;-70
2021/11/24 00:20:23;;;;;;;0.30;0.10;;;;;;;;;;5034580;28;20090;-69
2021/11/24 00:22:58;;;;;;;0.43;0.20;;;;;;;;;;5034614;28;20014;-70
2021/11/24 00:25:23;;;;;;;0.82;0.10;;;;;;;;;;5034310;28;20013;-69
2021/11/24 00:27:48;;;;;;;0.45;0.20;;;;;;;;;;5034295;28;20037;-70
2021/11/24 00:30:13;;;;;;;0.30;0.20;;;;;;;;;;5034089;28;20025;-70
2021/11/24 00:32:38;;;;;;;1.10;0.10;;;;;;;;;;5034617;28;20247;-69
2021/11/24 00:35:06;;;;;;;0.87;0.20;;;;;;;;;;5034033;28;20376;-69
2021/11/24 00:37:33;;;;;;;1.15;0.22;;;;;;;;;;5034322;28;20309;-69
2021/11/24 00:39:59;;;;;;;0.45;0.00;;;;;;;;;;5048936;28;20027;-71
2021/11/24 00:42:25;;;;;;;0.57;0.20;;;;;;;;;;5054127;28;20372;-69
2021/11/24 00:44:51;;;;;;;0.32;0.10;;;;;;;;;;5054385;28;20044;-70
2021/11/24 00:47:16;;;;;;;0.52;0.15;;;;;;;;;;5053704;28;20586;-70
2021/11/24 00:49:42;;;;;;;0.65;0.17;;;;;;;;;;5054170;28;20048;-70
2021/11/24 00:52:09;;;;;;;0.63;0.10;;;;;;;;;;5053955;28;20021;-69
2021/11/24 00:54:37;;;;;;;0.43;0.10;;;;;;;;;;5053848;28;20028;-70
2021/11/24 00:57:04;;;;;;;0.55;0.10;;;;;;;;;;5053524;28;20086;-70
2021/11/24 00:59:29;;;;;;;0.77;0.20;;;;;;;;;;5053933;28;20024;-69
2021/11/24 01:01:55;;;;;;;0.52;0.10;;;;;;;;;;5053424;28;20035;-70
2021/11/24 01:04:20;;;;;;;0.95;0.10;;;;;;;;;;5052847;28;20372;-69
2021/11/24 01:06:45;;;;;;;0.23;0.00;;;;;;;;;;5053778;28;20021;-70
2021/11/24 01:09:11;;;;;;;0.30;0.20;;;;;;;;;;5053545;28;20273;-69
2021/11/24 01:11:38;;;;;;;0.20;0.10;;;;;;;;;;5053540;28;20380;-70
2021/11/24 01:14:04;;;;;;;0.55;0.08;;;;;;;;;;5053176;28;20032;-69
2021/11/24 01:16:30;;;;;;;0.22;0.15;;;;;;;;;;5053628;28;20029;-69
2021/11/24 01:18:55;;;;;;;1.08;0.20;;;;;;;;;;5053526;28;20028;-70
2021/11/24 01:21:20;;;;;;;0.32;0.10;;;;;;;;;;5053156;28;20025;-70
2021/11/24 01:23:46;;;;;;;0.13;0.10;;;;;;;;;;5053428;28;20468;-70
2021/11/24 01:26:14;;;;;;;0.77;0.20;;;;;;;;;;5053267;28;20025;-69
2021/11/24 01:28:39;;;;;;;0.88;0.38;;;;;;;;;;5053537;28;20384;-69
2021/11/24 01:31:04;;;;;;;1.33;0.20;;;;;;;;;;5053228;28;20020;-70
2021/11/24 01:33:30;;;;;;;0.47;0.30;;;;;;;;;;5053695;28;20025;-70
2021/11/24 01:35:55;;;;;;;0.10;0.00;;;;;;;;;;5053614;28;20024;-69
2021/11/24 01:38:26;;;;;;;0.25;0.10;;;;;;;;;;5051418;28;20025;-69
2021/11/24 01:40:52;;;;;;;1.55;0.20;;;;;;;;;;5053380;28;20108;-70
2021/11/24 01:43:17;;;;;;;0.88;0.20;;;;;;;;;;5053535;28;20096;-70
2021/11/24 01:45:45;;;;;;;0.30;0.28;;;;;;;;;;5053521;28;20028;-71
2021/11/24 01:48:10;;;;;;;0.98;0.10;;;;;;;;;;5052077;28;20052;-70
2021/11/24 01:50:37;;;;;;;0.40;0.20;;;;;;;;;;5053400;28;20045;-70
2021/11/24 01:53:03;;;;;;;0.50;0.10;;;;;;;;;;5053253;28;20032;-69
2021/11/24 01:55:28;;;;;;;0.75;0.35;;;;;;;;;;5053279;28;20017;-70
2021/11/24 01:57:53;;;;;;;1.23;0.17;;;;;;;;;;5052113;28;20017;-70
2021/11/24 02:00:20;;;;;;;0.85;0.10;;;;;;;;;;5053104;28;20067;-69
2021/11/24 02:02:46;;;;;;;0.50;0.00;;;;;;;;;;5060869;22;20064;-71
2021/11/24 02:05:11;;;;;;;0.52;0.10;;;;;;;;;;5053027;28;20029;-70
2021/11/24 02:07:37;;;;;;;1.30;0.47;;;;;;;;;;5053315;28;20035;-70
2021/11/24 02:10:03;;;;;;;0.45;0.20;;;;;;;;;;5053020;28;20028;-69
2021/11/24 02:12:29;;;;;;;0.40;0.10;;;;;;;;;;5051699;28;20067;-70
2021/11/24 02:15:03;;;;;;;0.50;0.10;;;;;;;;;;5052838;28;20515;-70
2021/11/24 02:17:29;;;;;;;;;;;;;;;;;;5053425;28;20025;-70
2021/11/24 02:19:54;;;;;;;2.80;0.67;;;;;;;;;;5052839;28;19915;-70
2021/11/24 02:22:21;;;;;;;1.10;0.22;;;;;;;;;;5051785;28;20322;-70
2021/11/24 02:24:46;;;;;;;0.20;0.10;;;;;;;;;;5052738;28;20372;-70
2021/11/24 02:27:12;;;;;;;1.25;0.10;;;;;;;;;;5051564;28;20020;-70
2021/11/24 02:29:38;;;;;;;0.75;0.28;;;;;;;;;;5053109;28;20368;-70
2021/11/24 02:32:06;;;;;;;0.40;0.22;;;;;;;;;;5052853;28;20021;-70
2021/11/24 02:34:40;;;;;;;0.70;0.10;;;;;;;;;;5052715;28;20029;-70
2021/11/24 02:37:05;;;;;;;;;;;;;;;;;;5053135;28;20062;-70
2021/11/24 02:39:31;;;;;;;0.83;0.17;;;;;;;;;;5053128;28;19999;-70
2021/11/24 02:41:58;;;;;;;0.20;0.10;;;;;;;;;;5052388;28;20396;-70
2021/11/24 02:44:24;;;;;;;0.38;0.10;;;;;;;;;;5051728;28;20514;-70
2021/11/24 02:46:52;;;;;;;1.52;0.40;;;;;;;;;;5052950;28;20464;-70
2021/11/24 02:49:17;;;;;;;0.70;0.10;;;;;;;;;;5053614;28;20491;-69
2021/11/24 02:51:43;;;;;;;0.57;0.10;;;;;;;;;;5056348;28;20039;-69
2021/11/24 02:54:10;;;;;;;0.55;0.15;;;;;;;;;;5055971;28;20502;-69
2021/11/24 02:56:36;;;;;;;1.25;0.22;;;;;;;;;;5056473;28;20096;-70
2021/11/24 02:59:01;;;;;;;0.73;0.10;;;;;;;;;;5056285;28;20427;-69
2021/11/24 03:01:26;;;;;;;0.40;0.10;;;;;;;;;;5056147;28;20095;-70
2021/11/24 03:03:51;;;;;;;0.90;0.10;;;;;;;;;;5056169;28;20013;-70
2021/11/24 03:06:17;;;;;;;1.03;0.20;;;;;;;;;;5055876;28;20468;-70
2021/11/24 03:08:44;;;;;;;0.15;0.10;;;;;;;;;;5054675;28;20246;-69
2021/11/24 03:11:14;;;;;;;1.00;0.10;;;;;;;;;;5054715;28;20527;-70
2021/11/24 03:13:40;;;;;;;0.60;0.32;;;;;;;;;;5055903;28;20029;-69
2021/11/24 03:16:06;;;;;;;0.40;0.10;;;;;;;;;;5054718;28;20472;-71
2021/11/24 03:18:31;;;;;;;0.65;0.10;;;;;;;;;;5054685;28;20479;-69
2021/11/24 03:20:57;;;;;;;0.40;0.13;;;;;;;;;;5055805;28;20021;-69
2021/11/24 03:23:22;;;;;;;0.05;0.03;;;;;;;;;;5055586;28;20490;-69
2021/11/24 03:25:47;;;;;;;0.38;0.20;;;;;;;;;;5055773;28;20009;-69
2021/11/24 03:28:12;;;;;;;0.43;0.10;;;;;;;;;;5055758;28;20626;-69
2021/11/24 03:30:39;;;;;;;2.00;0.20;;;;;;;;;;5054558;28;20297;-70
2021/11/24 03:33:04;;;;;;;0.40;0.10;;;;;;;;;;5055676;28;20409;-69
2021/11/24 03:35:30;;;;;;;0.10;0.10;;;;;;;;;;5055443;28;20017;-69
2021/11/24 03:37:56;;;;;;;1.35;0.28;;;;;;;;;;5054349;28;20025;-70
2021/11/24 03:40:23;;;;;;;1.33;0.20;;;;;;;;;;5055470;28;20467;-69
2021/11/24 03:42:49;;;;;;;0.30;0.10;;;;;;;;;;5054219;28;20104;-70
2021/11/24 03:45:16;;;;;;;0.20;0.00;;;;;;;;;;5055348;28;20111;-69
2021/11/24 03:47:42;;;;;;;0.38;0.10;;;;;;;;;;5055151;28;20025;-70
2021/11/24 03:50:08;;;;;;;0.77;0.20;;;;;;;;;;5055056;28;20013;-69
2021/11/24 03:52:34;;;;;;;0.10;0.00;;;;;;;;;;5055486;28;20411;-70
2021/11/24 03:54:59;;;;;;;0.87;0.20;;;;;;;;;;5055322;28;20016;-69
2021/11/24 03:57:26;;;;;;;0.20;0.20;;;;;;;;;;5055118;28;20288;-69
2021/11/24 03:59:53;;;;;;;0.57;0.20;;;;;;;;;;5055288;28;20016;-69
2021/11/24 04:02:18;;;;;;;0.70;0.15;;;;;;;;;;5054057;28;20431;-69
2021/11/24 04:04:45;;;;;;;0.10;0.10;;;;;;;;;;5055029;28;20020;-69
2021/11/24 04:07:12;;;;;;;0.52;0.10;;;;;;;;;;5054960;28;20589;-70
2021/11/24 04:09:39;;;;;;;0.20;0.10;;;;;;;;;;5054612;28;20013;-69
2021/11/24 04:12:04;;;;;;;0.63;0.10;;;;;;;;;;5054820;28;20063;-70
2021/11/24 04:14:30;;;;;;;0.28;0.10;;;;;;;;;;5054565;28;20028;-69
2021/11/24 04:16:56;;;;;;;1.58;0.10;;;;;;;;;;5053539;28;20037;-70
2021/11/24 04:19:21;;;;;;;1.08;0.20;;;;;;;;;;5054480;28;20023;-70
2021/11/24 04:21:48;;;;;;;0.60;0.08;;;;;;;;;;5054715;28;20418;-70
2021/11/24 04:24:16;;;;;;;0.52;0.20;;;;;;;;;;5053353;28;20013;-69
2021/11/24 04:26:41;;;;;;;0.77;0.40;;;;;;;;;;5053293;28;20013;-69
2021/11/24 04:29:07;;;;;;;0.80;0.20;;;;;;;;;;5054530;28;20411;-69
2021/11/24 04:31:32;;;;;;;0.20;0.10;;;;;;;;;;5054360;28;20096;-70
2021/11/24 04:34:11;;;;;;;0.30;0.10;;;;;;;;;;5054252;28;20059;-69
2021/11/24 04:36:36;;;;;;;0.38;0.10;;;;;;;;;;5054520;28;20597;-69
2021/11/24 04:39:02;;;;;;;0.63;0.10;;;;;;;;;;5054257;28;20020;-70
2021/11/24 04:41:28;;;;;;;0.63;0.10;;;;;;;;;;5054239;28;20504;-70
2021/11/24 04:43:55;;;;;;;0.52;0.15;;;;;;;;;;5054412;28;20054;-70
2021/11/24 04:46:22;;;;;;;0.22;0.05;;;;;;;;;;5054105;28;20025;-69
2021/11/24 04:48:48;;;;;;;0.25;0.00;;;;;;;;;;5054267;28;20083;-70
2021/11/24 04:51:15;;;;;;;0.22;0.13;;;;;;;;;;5054208;28;20067;-70
2021/11/24 04:53:42;;;;;;;0.38;0.10;;;;;;;;;;5054210;28;20017;-69
2021/11/24 04:56:08;;;;;;;0.10;0.05;;;;;;;;;;5053868;28;20363;-70
2021/11/24 04:58:41;;;;;;;0.08;0.08;;;;;;;;;;5054158;28;20021;-70
2021/11/24 05:01:06;;;;;;;1.15;0.22;;;;;;;;;;5053020;28;20021;-71
2021/11/24 05:03:31;;;;;;;0.03;0.00;;;;;;;;;;5054120;28;20082;-69
2021/11/24 05:06:13;;;;;;;0.38;0.22;;;;;;;;;;5053875;28;20451;-69
2021/11/24 05:08:41;;;;;;;0.17;0.08;;;;;;;;;;5052916;28;20388;-69
2021/11/24 05:11:07;;;;;;;0.32;0.10;;;;;;;;;;5053498;28;20019;-69
2021/11/24 05:13:34;;;;;;;0.63;0.10;;;;;;;;;;5052910;28;20024;-69
2021/11/24 05:16:04;;;;;;;0.43;0.20;;;;;;;;;;5053677;28;20021;-69
2021/11/24 05:18:37;;;;;;;1.05;0.10;;;;;;;;;;5053760;28;20091;-68
2021/11/24 05:21:06;;;;;;;0.65;0.10;;;;;;;;;;5053694;28;20424;-70
2021/11/24 05:23:36;;;;;;;0.32;0.10;;;;;;;;;;5053560;28;20431;-70
2021/11/24 05:26:02;;;;;;;0.45;0.10;;;;;;;;;;5053635;28;20013;-70
2021/11/24 05:28:28;;;;;;;0.30;0.20;;;;;;;;;;5052074;28;20013;-69
2021/11/24 05:30:53;;;;;;;0.60;0.10;;;;;;;;;;5053466;28;20093;-70
2021/11/24 05:33:18;;;;;;;0.20;0.17;;;;;;;;;;5052325;28;20024;-70
2021/11/24 05:35:43;;;;;;;0.70;0.10;;;;;;;;;;5053709;28;20253;-69
2021/11/24 05:38:08;;;;;;;0.37;0.03;;;;;;;;;;5053178;28;20028;-69
2021/11/24 05:40:34;;;;;;;0.00;0.00;;;;;;;;;;5053434;28;20282;-69
2021/11/24 05:43:00;;;;;;;0.52;0.20;;;;;;;;;;5053098;28;20021;-70
2021/11/24 05:45:38;;;;;;;0.82;0.20;;;;;;;;;;5053244;28;20074;-69
2021/11/24 05:48:08;;;;;;;1.48;0.17;;;;;;;;;;5053287;28;20017;-70
2021/11/24 05:50:35;;;;;;;0.50;0.30;;;;;;;;;;5053065;28;20082;-68
2021/11/24 05:53:03;;;;;;;0.20;0.10;;;;;;;;;;5053356;28;20146;-70
2021/11/24 05:55:30;;;;;;;1.30;0.25;;;;;;;;;;5052122;28;20471;-68
2021/11/24 05:57:56;;;;;;;0.52;0.08;;;;;;;;;;5053110;28;20798;-69
2021/11/24 06:00:21;;;;;;;0.20;0.00;;;;;;;;;;5053201;28;20032;-69
2021/11/24 06:02:46;;;;;;;0.30;0.10;;;;;;;;;;5053260;28;20040;-70
2021/11/24 06:05:12;;;;;;;0.38;0.22;;;;;;;;;;5052844;28;20021;-70
2021/11/24 06:07:37;;;;;;;0.10;0.00;;;;;;;;;;5053301;28;20067;-70
2021/11/24 06:10:04;;;;;;;0.65;0.10;;;;;;;;;;5052941;28;20028;-69
2021/11/24 06:12:29;;;;;;;0.30;0.20;;;;;;;;;;5053043;28;20079;-69
2021/11/24 06:14:56;;;;;;;0.47;0.00;;;;;;;;;;5052909;28;20772;-69
2021/11/24 06:17:21;;;;;;;0.73;0.13;;;;;;;;;;5053202;28;20005;-69
2021/11/24 06:19:47;;;;;;;0.38;0.10;;;;;;;;;;5053025;28;20071;-69
2021/11/24 06:22:13;;;;;;;0.43;0.10;;;;;;;;;;5052794;28;20027;-68
2021/11/24 06:24:39;;;;;;;0.20;0.10;;;;;;;;;;5054396;28;20013;-70
2021/11/24 06:27:04;;;;;;;0.88;0.10;;;;;;;;;;5056635;28;20013;-69
2021/11/24 06:29:36;;;;;;;0.38;0.00;;;;;;;;;;5056815;28;20032;-69
2021/11/24 06:32:01;;;;;;;0.77;0.40;;;;;;;;;;5056543;28;20059;-70
2021/11/24 06:34:34;;;;;;;0.30;0.00;;;;;;;;;;5056603;28;20021;-69
2021/11/24 06:36:59;;;;;;;0.32;0.10;;;;;;;;;;5056553;28;20357;-69
2021/11/24 06:39:26;;;;;;;0.88;0.20;;;;;;;;;;5055084;28;20112;-69
2021/11/24 06:41:51;;;;;;;0.47;0.10;;;;;;;;;;5056270;28;20054;-69
2021/11/24 06:44:17;;;;;;;0.20;0.10;;;;;;;;;;5056365;28;20092;-69
2021/11/24 06:46:44;;;;;;;0.30;0.10;;;;;;;;;;5056446;28;20465;-70
2021/11/24 06:49:10;;;;;;;0.38;0.10;;;;;;;;;;5056325;28;20044;-69
2021/11/24 06:51:43;;;;;;;0.13;0.10;;;;;;;;;;5056505;28;20464;-70
2021/11/24 06:54:08;;;;;;;0.10;0.10;;;;;;;;;;5056440;28;20029;-69
2021/11/24 06:56:36;;;;;;;0.10;0.10;;;;;;;;;;5056173;28;20376;-70
2021/11/24 06:59:03;;;;;;;0.30;0.10;;;;;;;;;;5056176;28;20017;-69
2021/11/24 07:01:28;;;;;;;0.43;0.03;;;;;;;;;;5055906;28;20047;-70
2021/11/24 07:03:53;;;;;;;0.60;0.30;;;;;;;;;;5056126;28;20025;-70
2021/11/24 07:06:18;;;;;;;0.97;0.20;;;;;;;;;;5055954;28;20025;-69
2021/11/24 07:08:44;;;;;;;0.17;0.00;;;;;;;;;;5056016;28;20278;-70
2021/11/24 07:11:10;;;;;;;1.27;0.52;;;;;;;;;;5055701;28;20028;-69
2021/11/24 07:13:35;;;;;;;0.35;0.10;;;;;;;;;;5055739;28;20037;-69
2021/11/24 07:16:00;;;;;;;0.93;0.27;;;;;;;;;;5055414;28;20025;-68
2021/11/24 07:18:27;;;;;;;0.80;0.15;;;;;;;;;;5055164;28;20928;-69
2021/11/24 07:20:52;;;;;;;1.63;0.43;;;;;;;;;;5055482;28;20112;-69
2021/11/24 07:23:18;;;;;;;2.03;0.23;;;;;;;;;;5063115;28;20110;-70
2021/11/24 07:25:50;;;;;;;0.77;0.10;;;;;;;;;;5055390;28;20264;-69
2021/11/24 07:28:16;;;;;;;0.30;0.10;;;;;;;;;;5060481;28;20464;-70
2021/11/24 07:30:54;;;;;;;1.00;0.20;;;;;;;;;;5055370;28;20029;-69
2021/11/24 07:33:19;;;;;;;0.35;0.10;;;;;;;;;;5056170;28;20032;-69
2021/11/24 07:35:53;;;;;;;0.25;0.00;;;;;;;;;;5054627;28;20040;-70
2021/11/24 07:38:19;;;;;;;0.22;0.05;;;;;;;;;;5054883;28;20029;-69
2021/11/24 07:40:44;;;;;;;1.02;0.10;;;;;;;;;;5055190;28;20036;-70
2021/11/24 07:43:09;;;;;;;1.98;0.10;;;;;;;;;;5054359;28;20021;-69
2021/11/24 07:45:34;;;;;;;0.70;0.00;;;;;;;;;;5055437;28;20021;-70
2021/11/24 07:48:01;;;;;;;0.10;0.03;;;;;;;;;;5054397;28;20151;-69
2021/11/24 07:50:27;;;;;;;0.28;0.28;;;;;;;;;;5054189;28;20361;-69
2021/11/24 07:53:01;;;;;;;1.55;0.10;;;;;;;;;;5060539;28;20471;-68
2021/11/24 07:55:26;;;;;;;2.17;0.20;;;;;;;;;;5070324;28;20043;-68
2021/11/24 07:57:51;;;;;;;0.10;0.10;;;;;;;;;;5058631;28;20024;-69
2021/11/24 08:00:17;;;;;;;0.85;0.10;;;;;;;;;;5054247;28;20020;-68
2021/11/24 08:02:42;;;;;;;0.57;0.10;;;;;;;;;;5062501;28;20388;-69
2021/11/24 08:05:08;;;;;;;0.73;0.10;;;;;;;;;;5064553;28;20020;-68
2021/11/24 08:07:36;;;;;;;0.30;0.08;;;;;;;;;;5074857;28;20062;-70
2021/11/24 08:10:01;;;;;;;0.90;0.25;;;;;;;;;;5057877;28;20021;-68
2021/11/24 08:12:26;;;;;;;0.55;0.30;;;;;;;;;;5054727;28;20086;-69
2021/11/24 08:14:53;;;;;;;0.20;0.13;;;;;;;;;;5062523;28;20029;-68
2021/11/24 08:17:19;;;;;;;1.35;0.03;;;;;;;;;;5054262;28;20468;-68
2021/11/24 08:19:44;;;;;;;0.65;0.20;;;;;;;;;;5054374;28;20027;-69
2021/11/24 08:22:09;;;;;;;0.90;0.30;;;;;;;;;;5053689;28;20499;-68
2021/11/24 08:24:36;;;;;;;0.20;0.10;;;;;;;;;;5053425;28;20017;-69
2021/11/24 08:27:02;;;;;;;1.00;0.10;;;;;;;;;;5054440;28;20018;-68
2021/11/24 08:29:29;;;;;;;0.75;0.10;;;;;;;;;;5054354;28;20050;-69
2021/11/24 08:31:55;;;;;;;1.23;0.17;;;;;;;;;;5054261;28;20024;-68
2021/11/24 08:34:20;;;;;;;1.20;0.20;;;;;;;;;;5054292;28;20017;-69
2021/11/24 08:36:46;;;;;;;0.25;0.00;;;;;;;;;;5054228;28;20476;-68
2021/11/24 08:39:11;;;;;;;1.33;0.10;;;;;;;;;;5053983;28;20032;-69
2021/11/24 08:41:38;;;;;;;0.55;0.22;;;;;;;;;;5053989;28;20478;-68
2021/11/24 08:44:04;;;;;;;0.10;0.10;;;;;;;;;;5053859;28;20468;-69
2021/11/24 08:46:31;;;;;;;0.40;0.10;;;;;;;;;;5053731;28;20071;-69
2021/11/24 08:48:56;;;;;;;1.23;0.40;;;;;;;;;;5053867;28;20031;-68
2021/11/24 08:51:21;;;;;;;1.10;0.10;;;;;;;;;;5053424;28;20025;-69
2021/11/24 08:53:46;;;;;;;0.13;0.13;;;;;;;;;;5054073;28;20104;-68
2021/11/24 08:56:12;;;;;;;0.60;0.10;;;;;;;;;;5053905;28;20048;-69
2021/11/24 08:58:39;;;;;;;0.98;0.20;;;;;;;;;;5053520;28;20721;-68
2021/11/24 09:01:04;;;;;;;0.68;0.20;;;;;;;;;;5053464;28;20029;-68
2021/11/24 09:03:29;;;;;;;0.63;0.30;;;;;;;;;;5053718;28;20029;-68
2021/11/24 09:05:54;;;;;;;2.05;0.38;;;;;;;;;;5053364;28;20376;-69
2021/11/24 09:08:19;;;;;;;0.60;0.13;;;;;;;;;;5053437;28;20070;-68
2021/11/24 09:10:45;;;;;;;1.10;0.10;;;;;;;;;;5053374;28;20508;-69
2021/11/24 09:13:10;;;;;;;1.02;0.47;;;;;;;;;;5053382;28;20505;-68
2021/11/24 09:15:36;;;;;;;0.93;0.10;;;;;;;;;;5053483;28;20064;-69
2021/11/24 09:18:03;;;;;;;0.47;0.10;;;;;;;;;;5053381;28;20021;-68
2021/11/24 09:20:30;;;;;;;0.50;0.10;;;;;;;;;;5053142;28;20070;-69
2021/11/24 09:22:56;;;;;;;0.75;0.10;;;;;;;;;;5053324;28;20041;-68
2021/11/24 09:25:24;;;;;;;0.00;0.00;;;;;;;;;;5053227;28;20353;-69
2021/11/24 09:27:57;;;;;;;0.35;0.00;;;;;;;;;;5053427;28;20375;-68
2021/11/24 09:30:23;;;;;;;0.23;0.00;;;;;;;;;;5053027;28;20129;-68
2021/11/24 09:32:49;;;;;;;1.65;0.25;;;;;;;;;;5053336;28;20017;-69
2021/11/24 09:35:15;;;;;;;1.55;0.30;;;;;;;;;;5052956;28;20020;-68
2021/11/24 09:37:41;;;;;;;0.65;0.08;;;;;;;;;;5053350;28;20021;-69
2021/11/24 09:40:07;;;;;;;0.45;0.10;;;;;;;;;;5052728;28;20039;-68
2021/11/24 09:42:33;;;;;;;0.45;0.10;;;;;;;;;;5053325;28;20376;-68
2021/11/24 09:45:00;;;;;;;0.98;0.20;;;;;;;;;;5052939;28;20017;-68
2021/11/24 09:47:26;;;;;;;0.28;0.10;;;;;;;;;;5053908;28;20100;-68
2021/11/24 09:49:56;;;;;;;0.20;0.10;;;;;;;;;;5060106;28;20028;-68
2021/11/24 09:52:22;;;;;;;0.70;0.30;;;;;;;;;;5052871;28;20032;-68
2021/11/24 09:54:50;;;;;;;2.58;0.30;;;;;;;;;;5053323;28;20068;-70
2021/11/24 09:57:21;;;;;;;0.13;0.00;;;;;;;;;;5052676;28;20028;-68
2021/11/24 09:59:49;;;;;;;0.82;0.10;;;;;;;;;;5054401;28;20064;-69
2021/11/24 10:02:14;;;;;;;0.70;0.00;;;;;;;;;;5056702;28;20048;-68
2021/11/24 10:04:42;;;;;;;0.20;0.10;;;;;;;;;;5056929;28;20674;-69
2021/11/24 10:07:08;;;;;;;0.10;0.08;;;;;;;;;;5056653;28;20020;-68
2021/11/24 10:09:35;;;;;;;0.30;0.30;;;;;;;;;;5057008;28;20019;-68
2021/11/24 10:12:00;;;;;;;0.77;0.20;;;;;;;;;;5056452;28;20502;-70
2021/11/24 10:14:25;;;;;;;1.52;0.22;;;;;;;;;;5056706;28;20033;-68
2021/11/24 10:16:50;;;;;;;0.30;0.10;;;;;;;;;;5056759;28;20020;-69
2021/11/24 10:19:16;;;;;;;0.28;0.10;;;;;;;;;;5056661;28;20017;-67
2021/11/24 10:21:53;;;;;;;0.30;0.10;;;;;;;;;;5056642;28;20025;-69
2021/11/24 10:24:26;;;;;;;1.30;0.25;;;;;;;;;;5056715;28;20542;-68
2021/11/24 10:26:51;;;;;;;1.33;0.20;;;;;;;;;;5056939;28;20456;-69
2021/11/24 10:29:17;;;;;;;0.95;0.10;;;;;;;;;;5056399;28;20131;-68
2021/11/24 10:31:44;;;;;;;0.55;0.10;;;;;;;;;;5056670;28;20372;-69
2021/11/24 10:34:24;;;;;;;0.60;0.00;;;;;;;;;;5056069;28;20032;-67
2021/11/24 10:37:06;;;;;;;0.80;0.00;;;;;;;;;;5053296;28;20055;-68
2021/11/24 10:39:34;;;;;;;0.55;0.10;;;;;;;;;;5054422;28;20035;-69
2021/11/24 10:42:06;;;;;;;1.10;0.03;;;;;;;;;;5075620;28;20020;-68
2021/11/24 10:44:34;;;;;;;0.50;0.20;;;;;;;;;;5075990;28;20048;-69
2021/11/24 10:47:00;;;;;;;0.70;0.30;;;;;;;;;;5075960;28;20067;-68
2021/11/24 10:49:30;;;;;;;0.73;0.15;;;;;;;;;;5075978;28;20024;-69
2021/11/24 10:51:56;;;;;;;0.15;0.15;;;;;;;;;;5075702;28;20480;-69
2021/11/24 10:54:21;;;;;;;0.55;0.10;;;;;;;;;;5075900;28;20069;-68
2021/11/24 10:57:00;;;;;;;0.83;0.23;;;;;;;;;;5075750;28;20093;-70
2021/11/24 10:59:27;;;;;;;0.73;0.10;;;;;;;;;;5075897;28;20277;-68
2021/11/24 11:02:13;;;;;;;0.98;0.10;;;;;;;;;;5075173;28;20124;-69
2021/11/24 11:04:57;;;;;;;0.22;0.10;;;;;;;;;;5075529;28;20506;-68
2021/11/24 11:07:22;;;;;;;1.60;0.20;;;;;;;;;;5075935;28;20013;-68
2021/11/24 11:09:47;;;;;;;0.55;0.10;;;;;;;;;;5075676;28;20395;-68
2021/11/24 11:12:15;;;;;;;1.33;0.43;;;;;;;;;;5075612;28;20031;-68
2021/11/24 11:14:40;;;;;;;0.73;0.20;;;;;;;;;;5075480;28;20256;-68
2021/11/24 11:17:05;;;;;;;2.30;0.30;;;;;;;;;;5075659;28;20020;-68
2021/11/24 11:19:41;;;;;;;0.10;0.00;;;;;;;;;;5075521;28;20035;-67
2021/11/24 11:22:08;;;;;;;0.45;0.30;;;;;;;;;;5074953;28;20452;-68
2021/11/24 11:24:33;;;;;;;0.38;0.10;;;;;;;;;;5075781;28;20016;-68
2021/11/24 11:26:59;;;;;;;0.20;0.10;;;;;;;;;;5075166;28;20013;-68
2021/11/24 11:29:24;;;;;;;0.10;0.10;;;;;;;;;;5075595;28;20588;-68
2021/11/24 11:31:49;;;;;;;0.93;0.10;;;;;;;;;;5074963;28;20452;-66
2021/11/24 11:34:15;;;;;;;0.20;0.10;;;;;;;;;;5074864;28;20062;-68
2021/11/24 11:36:42;;;;;;;1.17;0.20;;;;;;;;;;5074949;28;20023;-68
2021/11/24 11:39:08;;;;;;;0.13;0.00;;;;;;;;;;5066825;28;20017;-68
2021/11/24 11:41:34;;;;;;;0.43;0.28;;;;;;;;;;5055142;28;20021;-68
2021/11/24 11:44:00;;;;;;;0.75;0.20;;;;;;;;;;5054869;28;20017;-68
2021/11/24 11:46:33;;;;;;;1.40;0.30;;;;;;;;;;5055001;28;20301;-68
2021/11/24 11:49:07;;;;;;;0.73;0.38;;;;;;;;;;5054900;28;20372;-67
2021/11/24 11:51:34;;;;;;;0.40;0.20;;;;;;;;;;5054603;28;20020;-68
2021/11/24 11:54:00;;;;;;;0.47;0.20;;;;;;;;;;5054444;28;20025;-67
2021/11/24 11:56:26;;;;;;;0.10;0.00;;;;;;;;;;5062437;28;20039;-69
2021/11/24 11:58:57;;;;;;;0.32;0.20;;;;;;;;;;5070929;28;20012;-68
2021/11/24 12:01:28;;;;;;;0.13;0.00;;;;;;;;;;5053709;28;20085;-69
2021/11/24 12:04:17;;;;;;;0.45;0.15;;;;;;;;;;5056597;28;20024;-68
2021/11/24 12:06:42;;;;;;;0.20;0.00;;;;;;;;;;5055886;28;20367;-68
2021/11/24 12:09:14;;;;;;;0.20;0.08;;;;;;;;;;5053485;28;20019;-68
2021/11/24 12:11:58;;;;;;;0.45;0.17;;;;;;;;;;5050400;28;20021;-67
2021/11/24 12:14:42;;;;;;;0.57;0.10;;;;;;;;;;5053943;28;20068;-68
2021/11/24 12:17:25;;;;;;;0.77;0.10;;;;;;;;;;5065900;28;20028;-68
2021/11/24 12:19:51;;;;;;;1.17;0.20;;;;;;;;;;5034466;28;20025;-68
2021/11/24 12:22:16;;;;;;;0.95;0.30;;;;;;;;;;5043408;28;20021;-69
2021/11/24 12:24:41;;;;;;;0.88;0.17;;;;;;;;;;5053956;28;20353;-68
2021/11/24 12:27:07;;;;;;;1.02;0.10;;;;;;;;;;5053496;28;20460;-69
2021/11/24 12:29:48;;;;;;;0.00;0.00;;;;;;;;;;5053745;28;20025;-68
2021/11/24 12:32:17;;;;;;;2.00;0.20;;;;;;;;;;5054039;28;20583;-69
2021/11/24 12:34:51;;;;;;;0.40;0.10;;;;;;;;;;5053645;28;20021;-69
2021/11/24 12:37:22;;;;;;;0.43;0.25;;;;;;;;;;5053414;28;20063;-68
2021/11/24 12:39:49;;;;;;;0.63;0.15;;;;;;;;;;5053866;28;20528;-69
2021/11/24 12:42:14;;;;;;;0.50;0.10;;;;;;;;;;5052205;28;20419;-69
2021/11/24 12:44:53;;;;;;;1.08;0.20;;;;;;;;;;5067125;28;20016;-69
2021/11/24 12:47:22;;;;;;;0.25;0.20;;;;;;;;;;5062479;28;20452;-69
2021/11/24 12:49:50;;;;;;;0.30;0.20;;;;;;;;;;5052924;28;20092;-69
2021/11/24 12:52:15;;;;;;;0.40;0.05;;;;;;;;;;5052968;28;20033;-69
2021/11/24 12:54:42;;;;;;;0.43;0.00;;;;;;;;;;5053752;28;20024;-69
2021/11/24 12:57:08;;;;;;;0.03;0.03;;;;;;;;;;5051480;28;20021;-69
2021/11/24 12:59:35;;;;;;;0.25;0.00;;;;;;;;;;5051588;28;20016;-69
2021/11/24 13:02:02;;;;;;;0.30;0.00;;;;;;;;;;5050214;28;20048;-70
2021/11/24 13:04:38;;;;;;;0.60;0.10;;;;;;;;;;5051358;28;20021;-68
2021/11/24 13:07:05;;;;;;;0.35;0.17;;;;;;;;;;5052066;28;20411;-69
2021/11/24 13:09:37;;;;;;;0.98;0.10;;;;;;;;;;5049173;28;20017;-68
2021/11/24 13:12:04;;;;;;;0.30;0.20;;;;;;;;;;5044554;28;20021;-70
2021/11/24 13:14:35;;;;;;;0.50;0.10;;;;;;;;;;5052316;28;20499;-69
2021/11/24 13:17:00;;;;;;;0.63;0.08;;;;;;;;;;5052322;28;20087;-69
2021/11/24 13:19:35;;;;;;;0.75;0.40;;;;;;;;;;5050446;28;20453;-69
2021/11/24 13:22:00;;;;;;;;;;;;;;;;;;5048336;28;20028;-69
2021/11/24 13:24:27;;;;;;;0.40;0.30;;;;;;;;;;5051469;28;19908;-68
2021/11/24 13:26:55;;;;;;;0.38;0.00;;;;;;;;;;5050203;28;20021;-69
2021/11/24 13:29:24;;;;;;;0.47;0.10;;;;;;;;;;5060450;28;20024;-69
2021/11/24 13:31:52;;;;;;;1.08;0.30;;;;;;;;;;5052564;28;20108;-69
2021/11/24 13:34:26;;;;;;;2.10;0.50;;;;;;;;;;5051747;28;20032;-69
2021/11/24 13:36:52;;;;;;;0.80;0.10;;;;;;;;;;5060093;28;20349;-69
2021/11/24 13:39:17;;;;;;;0.98;0.15;;;;;;;;;;5058138;28;20051;-69
2021/11/24 13:41:42;;;;;;;0.50;0.35;;;;;;;;;;5051348;28;20028;-69
2021/11/24 13:44:07;;;;;;;1.02;0.20;;;;;;;;;;5046404;28;20052;-69
2021/11/24 13:46:49;;;;;;;0.50;0.10;;;;;;;;;;5050440;28;20045;-69
2021/11/24 13:49:17;;;;;;;1.52;0.22;;;;;;;;;;5052753;28;20246;-69
2021/11/24 13:51:44;;;;;;;0.28;0.00;;;;;;;;;;5052254;28;20017;-69
2021/11/24 13:54:10;;;;;;;0.75;0.00;;;;;;;;;;5051245;28;20025;-69
2021/11/24 13:56:45;;;;;;;0.43;0.17;;;;;;;;;;5053855;28;20032;-68
2021/11/24 13:59:12;;;;;;;1.17;0.47;;;;;;;;;;5053569;28;20032;-68
2021/11/24 14:01:47;;;;;;;0.80;0.10;;;;;;;;;;5056250;28;20055;-68
2021/11/24 14:04:18;;;;;;;0.93;0.00;;;;;;;;;;5055374;28;20036;-69
2021/11/24 14:06:45;;;;;;;1.10;0.20;;;;;;;;;;5049983;28;20021;-68
2021/11/24 14:09:16;;;;;;;0.60;0.10;;;;;;;;;;5051413;28;20108;-68
2021/11/24 14:11:51;;;;;;;0.22;0.00;;;;;;;;;;5056329;28;20111;-69
2021/11/24 14:14:16;;;;;;;0.30;0.17;;;;;;;;;;5050128;28;20074;-69
2021/11/24 14:16:42;;;;;;;0.17;0.10;;;;;;;;;;5053335;28;20411;-69
2021/11/24 14:19:14;;;;;;;0.68;0.10;;;;;;;;;;5059945;28;20037;-67
2021/11/24 14:21:55;;;;;;;1.20;0.28;;;;;;;;;;5049200;28;20029;-69
2021/11/24 14:24:21;;;;;;;0.75;0.20;;;;;;;;;;5038735;28;20028;-69
2021/11/24 14:26:47;;;;;;;0.88;0.30;;;;;;;;;;5051369;28;20021;-70
2021/11/24 14:29:13;;;;;;;0.95;0.20;;;;;;;;;;5054205;28;20048;-69
2021/11/24 14:31:38;;;;;;;0.22;0.20;;;;;;;;;;5049386;28;20056;-69
2021/11/24 14:34:03;;;;;;;0.57;0.10;;;;;;;;;;5051118;28;20021;-69
2021/11/24 14:36:31;;;;;;;0.08;0.05;;;;;;;;;;5050912;28;20033;-69
2021/11/24 14:38:56;;;;;;;0.30;0.10;;;;;;;;;;5051736;28;20017;-68
2021/11/24 14:41:21;;;;;;;1.65;0.15;;;;;;;;;;5050790;28;20025;-69
2021/11/24 14:43:47;;;;;;;0.52;0.10;;;;;;;;;;5051034;28;20025;-69